sensor_id;sensor_type;location;lat;lon;timestamp;P1;durP1;ratioP1;P2;durP2;ratioP2
19897;SDS011;10111;50.814;4.572;2023-04-03T00:01:13;6.27;;;5.13;;
19897;SDS011;10111;50.814;4.572;2023-04-03T00:03:38;7.23;;;5.97;;
19897;SDS011;10111;50.814;4.572;2023-04-03T00:06:06;6.10;;;4.53;;
19897;SDS011;10111;50.814;4.572;2023-04-03T00:08:33;8.53;;;4.63;;
19897;SDS011;10111;50.814;4.572;2023-04-03T00:11:00;7.90;;;5.13;;
19897;SDS011;10111;50.814;4.572;2023-04-03T00:13:26;6.00;;;4.60;;
19897;SDS011;10111;50.814;4.572;2023-04-03T00:15:52;7.43;;;5.63;;
19897;SDS011;10111;50.814;4.572;2023-04-03T00:18:18;6.23;;;5.33;;
19897;SDS011;10111;50.814;4.572;2023-04-03T00:20:43;5.33;;;4.27;;
19897;SDS011;10111;50.814;4.572;2023-04-03T00:23:09;7.67;;;5.40;;
19897;SDS011;10111;50.814;4.572;2023-04-03T00:25:35;6.33;;;4.97;;
19897;SDS011;10111;50.814;4.572;2023-04-03T00:28:01;5.97;;;4.97;;
19897;SDS011;10111;50.814;4.572;2023-04-03T00:30:27;4.87;;;4.37;;
19897;SDS011;10111;50.814;4.572;2023-04-03T00:32:53;6.17;;;4.73;;
19897;SDS011;10111;50.814;4.572;2023-04-03T00:35:20;7.10;;;5.20;;
19897;SDS011;10111;50.814;4.572;2023-04-03T00:37:46;6.50;;;5.00;;
19897;SDS011;10111;50.814;4.572;2023-04-03T00:40:13;6.47;;;4.77;;
19897;SDS011;10111;50.814;4.572;2023-04-03T00:42:40;5.27;;;4.20;;
19897;SDS011;10111;50.814;4.572;2023-04-03T00:47:36;6.83;;;5.17;;
19897;SDS011;10111;50.814;4.572;2023-04-03T00:50:04;10.93;;;5.23;;
19897;SDS011;10111;50.814;4.572;2023-04-03T00:52:30;5.60;;;4.90;;
19897;SDS011;10111;50.814;4.572;2023-04-03T00:54:58;5.20;;;4.70;;
19897;SDS011;10111;50.814;4.572;2023-04-03T00:57:27;7.40;;;5.10;;
19897;SDS011;10111;50.814;4.572;2023-04-03T00:59:56;8.53;;;5.70;;
19897;SDS011;10111;50.814;4.572;2023-04-03T01:02:26;7.33;;;5.83;;
19897;SDS011;10111;50.814;4.572;2023-04-03T01:04:52;6.90;;;5.47;;
19897;SDS011;10111;50.814;4.572;2023-04-03T01:07:18;6.30;;;5.10;;
19897;SDS011;10111;50.814;4.572;2023-04-03T01:09:49;6.63;;;5.57;;
19897;SDS011;10111;50.814;4.572;2023-04-03T01:12:28;7.13;;;5.40;;
19897;SDS011;10111;50.814;4.572;2023-04-03T01:15:00;6.77;;;6.07;;
19897;SDS011;10111;50.814;4.572;2023-04-03T01:25:47;10.40;;;5.63;;
19897;SDS011;10111;50.814;4.572;2023-04-03T01:28:19;8.73;;;6.03;;
19897;SDS011;10111;50.814;4.572;2023-04-03T01:33:27;8.43;;;6.13;;
19897;SDS011;10111;50.814;4.572;2023-04-03T01:35:53;7.37;;;6.00;;
19897;SDS011;10111;50.814;4.572;2023-04-03T01:38:19;6.53;;;5.47;;
19897;SDS011;10111;50.814;4.572;2023-04-03T01:40:45;7.03;;;5.73;;
19897;SDS011;10111;50.814;4.572;2023-04-03T01:43:11;8.23;;;5.50;;
19897;SDS011;10111;50.814;4.572;2023-04-03T01:45:37;6.30;;;5.47;;
19897;SDS011;10111;50.814;4.572;2023-04-03T01:48:02;6.93;;;5.70;;
19897;SDS011;10111;50.814;4.572;2023-04-03T01:50:28;7.43;;;5.33;;
19897;SDS011;10111;50.814;4.572;2023-04-03T01:52:54;5.93;;;5.43;;
19897;SDS011;10111;50.814;4.572;2023-04-03T01:55:20;9.70;;;5.47;;
19897;SDS011;10111;50.814;4.572;2023-04-03T01:57:45;8.17;;;6.07;;
19897;SDS011;10111;50.814;4.572;2023-04-03T02:00:11;8.13;;;5.37;;
19897;SDS011;10111;50.814;4.572;2023-04-03T02:02:37;6.93;;;5.73;;
19897;SDS011;10111;50.814;4.572;2023-04-03T02:05:03;9.70;;;5.13;;
19897;SDS011;10111;50.814;4.572;2023-04-03T02:07:29;10.80;;;5.90;;
19897;SDS011;10111;50.814;4.572;2023-04-03T02:09:55;5.50;;;4.93;;
19897;SDS011;10111;50.814;4.572;2023-04-03T02:12:20;8.30;;;5.97;;
19897;SDS011;10111;50.814;4.572;2023-04-03T02:14:46;8.13;;;5.73;;
19897;SDS011;10111;50.814;4.572;2023-04-03T02:17:12;7.97;;;6.10;;
19897;SDS011;10111;50.814;4.572;2023-04-03T02:19:37;9.50;;;6.07;;
19897;SDS011;10111;50.814;4.572;2023-04-03T02:22:03;7.70;;;5.73;;
19897;SDS011;10111;50.814;4.572;2023-04-03T02:24:29;6.50;;;5.23;;
19897;SDS011;10111;50.814;4.572;2023-04-03T02:26:55;8.43;;;6.20;;
19897;SDS011;10111;50.814;4.572;2023-04-03T02:29:21;11.33;;;6.47;;
19897;SDS011;10111;50.814;4.572;2023-04-03T02:31:47;7.93;;;5.60;;
19897;SDS011;10111;50.814;4.572;2023-04-03T02:34:12;6.17;;;5.57;;
19897;SDS011;10111;50.814;4.572;2023-04-03T02:36:38;7.03;;;5.97;;
19897;SDS011;10111;50.814;4.572;2023-04-03T02:39:04;7.73;;;6.37;;
19897;SDS011;10111;50.814;4.572;2023-04-03T02:41:30;8.60;;;5.70;;
19897;SDS011;10111;50.814;4.572;2023-04-03T02:44:02;7.70;;;6.20;;
19897;SDS011;10111;50.814;4.572;2023-04-03T02:46:29;7.93;;;5.67;;
19897;SDS011;10111;50.814;4.572;2023-04-03T02:48:54;9.57;;;5.80;;
19897;SDS011;10111;50.814;4.572;2023-04-03T02:51:20;7.27;;;5.50;;
19897;SDS011;10111;50.814;4.572;2023-04-03T02:53:47;9.73;;;5.87;;
19897;SDS011;10111;50.814;4.572;2023-04-03T02:56:13;7.23;;;5.50;;
19897;SDS011;10111;50.814;4.572;2023-04-03T02:58:39;8.33;;;5.93;;
19897;SDS011;10111;50.814;4.572;2023-04-03T03:01:05;5.47;;;4.57;;
19897;SDS011;10111;50.814;4.572;2023-04-03T03:03:31;5.30;;;4.70;;
19897;SDS011;10111;50.814;4.572;2023-04-03T03:06:07;6.63;;;5.13;;
19897;SDS011;10111;50.814;4.572;2023-04-03T03:08:36;6.40;;;4.90;;
19897;SDS011;10111;50.814;4.572;2023-04-03T03:11:03;7.27;;;6.40;;
19897;SDS011;10111;50.814;4.572;2023-04-03T03:13:29;8.43;;;5.73;;
19897;SDS011;10111;50.814;4.572;2023-04-03T03:15:55;7.20;;;6.13;;
19897;SDS011;10111;50.814;4.572;2023-04-03T03:18:21;8.17;;;5.53;;
19897;SDS011;10111;50.814;4.572;2023-04-03T03:20:50;7.50;;;5.30;;
19897;SDS011;10111;50.814;4.572;2023-04-03T03:23:17;7.40;;;5.30;;
19897;SDS011;10111;50.814;4.572;2023-04-03T03:25:43;6.97;;;4.97;;
19897;SDS011;10111;50.814;4.572;2023-04-03T03:28:09;5.20;;;4.70;;
19897;SDS011;10111;50.814;4.572;2023-04-03T03:30:34;8.90;;;5.57;;
19897;SDS011;10111;50.814;4.572;2023-04-03T03:33:00;5.70;;;5.10;;
19897;SDS011;10111;50.814;4.572;2023-04-03T03:35:26;6.30;;;5.63;;
19897;SDS011;10111;50.814;4.572;2023-04-03T03:37:52;6.07;;;5.40;;
19897;SDS011;10111;50.814;4.572;2023-04-03T03:40:17;5.87;;;5.23;;
19897;SDS011;10111;50.814;4.572;2023-04-03T03:42:43;6.73;;;5.07;;
19897;SDS011;10111;50.814;4.572;2023-04-03T03:45:09;6.87;;;5.07;;
19897;SDS011;10111;50.814;4.572;2023-04-03T03:47:35;7.60;;;5.70;;
19897;SDS011;10111;50.814;4.572;2023-04-03T03:50:01;6.50;;;5.90;;
19897;SDS011;10111;50.814;4.572;2023-04-03T03:52:27;8.10;;;5.70;;
19897;SDS011;10111;50.814;4.572;2023-04-03T03:54:54;5.43;;;4.93;;
19897;SDS011;10111;50.814;4.572;2023-04-03T03:57:20;6.33;;;4.67;;
19897;SDS011;10111;50.814;4.572;2023-04-03T03:59:46;6.80;;;4.80;;
19897;SDS011;10111;50.814;4.572;2023-04-03T04:02:13;5.33;;;4.80;;
19897;SDS011;10111;50.814;4.572;2023-04-03T04:04:39;7.53;;;5.50;;
19897;SDS011;10111;50.814;4.572;2023-04-03T04:07:05;6.10;;;5.50;;
19897;SDS011;10111;50.814;4.572;2023-04-03T04:09:31;5.77;;;5.13;;
19897;SDS011;10111;50.814;4.572;2023-04-03T04:11:56;9.73;;;5.80;;
19897;SDS011;10111;50.814;4.572;2023-04-03T04:14:22;6.37;;;4.93;;
19897;SDS011;10111;50.814;4.572;2023-04-03T04:16:48;5.70;;;5.10;;
19897;SDS011;10111;50.814;4.572;2023-04-03T04:19:14;6.50;;;5.20;;
19897;SDS011;10111;50.814;4.572;2023-04-03T04:21:40;5.97;;;5.37;;
19897;SDS011;10111;50.814;4.572;2023-04-03T04:24:06;6.67;;;6.03;;
19897;SDS011;10111;50.814;4.572;2023-04-03T04:26:33;5.60;;;5.10;;
19897;SDS011;10111;50.814;4.572;2023-04-03T04:28:59;6.77;;;5.90;;
19897;SDS011;10111;50.814;4.572;2023-04-03T04:31:25;8.70;;;6.47;;
19897;SDS011;10111;50.814;4.572;2023-04-03T04:33:52;6.20;;;5.60;;
19897;SDS011;10111;50.814;4.572;2023-04-03T04:36:18;7.10;;;6.37;;
19897;SDS011;10111;50.814;4.572;2023-04-03T04:38:44;8.97;;;5.87;;
19897;SDS011;10111;50.814;4.572;2023-04-03T04:41:09;7.73;;;5.93;;
19897;SDS011;10111;50.814;4.572;2023-04-03T04:43:35;6.20;;;5.60;;
19897;SDS011;10111;50.814;4.572;2023-04-03T04:46:05;7.17;;;5.83;;
19897;SDS011;10111;50.814;4.572;2023-04-03T04:48:32;9.50;;;6.67;;
19897;SDS011;10111;50.814;4.572;2023-04-03T04:50:58;9.07;;;6.60;;
19897;SDS011;10111;50.814;4.572;2023-04-03T04:53:24;9.97;;;6.10;;
19897;SDS011;10111;50.814;4.572;2023-04-03T04:55:49;7.43;;;6.73;;
19897;SDS011;10111;50.814;4.572;2023-04-03T04:58:15;8.40;;;6.80;;
19897;SDS011;10111;50.814;4.572;2023-04-03T05:00:41;8.90;;;6.77;;
19897;SDS011;10111;50.814;4.572;2023-04-03T05:03:06;9.03;;;6.50;;
19897;SDS011;10111;50.814;4.572;2023-04-03T05:05:32;9.60;;;7.03;;
19897;SDS011;10111;50.814;4.572;2023-04-03T05:07:58;11.00;;;6.90;;
19897;SDS011;10111;50.814;4.572;2023-04-03T05:10:24;10.80;;;6.73;;
19897;SDS011;10111;50.814;4.572;2023-04-03T05:12:50;8.00;;;6.87;;
19897;SDS011;10111;50.814;4.572;2023-04-03T05:15:15;14.37;;;8.00;;
19897;SDS011;10111;50.814;4.572;2023-04-03T05:17:41;11.70;;;8.50;;
19897;SDS011;10111;50.814;4.572;2023-04-03T05:20:07;9.90;;;7.30;;
19897;SDS011;10111;50.814;4.572;2023-04-03T05:22:33;9.47;;;7.60;;
19897;SDS011;10111;50.814;4.572;2023-04-03T05:24:59;10.50;;;8.27;;
19897;SDS011;10111;50.814;4.572;2023-04-03T05:27:25;8.83;;;6.73;;
19897;SDS011;10111;50.814;4.572;2023-04-03T05:29:53;8.90;;;6.67;;
19897;SDS011;10111;50.814;4.572;2023-04-03T05:32:19;9.50;;;6.97;;
19897;SDS011;10111;50.814;4.572;2023-04-03T05:34:45;7.87;;;6.97;;
19897;SDS011;10111;50.814;4.572;2023-04-03T05:37:11;11.60;;;8.03;;
19897;SDS011;10111;50.814;4.572;2023-04-03T05:39:36;12.00;;;8.50;;
19897;SDS011;10111;50.814;4.572;2023-04-03T05:42:05;22.67;;;8.57;;
19897;SDS011;10111;50.814;4.572;2023-04-03T05:44:31;13.83;;;8.60;;
19897;SDS011;10111;50.814;4.572;2023-04-03T05:46:57;19.17;;;9.70;;
19897;SDS011;10111;50.814;4.572;2023-04-03T05:49:23;16.73;;;8.47;;
19897;SDS011;10111;50.814;4.572;2023-04-03T05:51:48;19.90;;;8.47;;
19897;SDS011;10111;50.814;4.572;2023-04-03T05:54:18;19.77;;;9.50;;
19897;SDS011;10111;50.814;4.572;2023-04-03T05:56:48;34.23;;;9.60;;
19897;SDS011;10111;50.814;4.572;2023-04-03T05:59:14;14.07;;;9.10;;
19897;SDS011;10111;50.814;4.572;2023-04-03T06:01:40;12.83;;;9.33;;
19897;SDS011;10111;50.814;4.572;2023-04-03T06:04:06;19.07;;;8.87;;
19897;SDS011;10111;50.814;4.572;2023-04-03T06:09:08;12.73;;;9.20;;
19897;SDS011;10111;50.814;4.572;2023-04-03T06:11:34;17.27;;;10.37;;
19897;SDS011;10111;50.814;4.572;2023-04-03T06:14:00;12.87;;;10.07;;
19897;SDS011;10111;50.814;4.572;2023-04-03T06:16:26;14.43;;;10.97;;
19897;SDS011;10111;50.814;4.572;2023-04-03T06:18:52;14.37;;;10.17;;
19897;SDS011;10111;50.814;4.572;2023-04-03T06:21:17;19.17;;;11.27;;
19897;SDS011;10111;50.814;4.572;2023-04-03T06:23:43;17.87;;;11.97;;
19897;SDS011;10111;50.814;4.572;2023-04-03T06:26:08;17.83;;;12.70;;
19897;SDS011;10111;50.814;4.572;2023-04-03T06:28:35;15.07;;;11.60;;
19897;SDS011;10111;50.814;4.572;2023-04-03T06:31:00;17.37;;;11.83;;
19897;SDS011;10111;50.814;4.572;2023-04-03T06:33:26;16.77;;;10.93;;
19897;SDS011;10111;50.814;4.572;2023-04-03T06:35:55;15.07;;;11.23;;
19897;SDS011;10111;50.814;4.572;2023-04-03T06:38:24;16.07;;;12.17;;
19897;SDS011;10111;50.814;4.572;2023-04-03T06:40:50;12.37;;;10.33;;
19897;SDS011;10111;50.814;4.572;2023-04-03T06:43:16;16.20;;;10.33;;
19897;SDS011;10111;50.814;4.572;2023-04-03T06:45:42;11.40;;;10.10;;
19897;SDS011;10111;50.814;4.572;2023-04-03T06:48:08;13.10;;;10.63;;
19897;SDS011;10111;50.814;4.572;2023-04-03T06:50:34;11.83;;;9.67;;
19897;SDS011;10111;50.814;4.572;2023-04-03T06:53:00;13.53;;;10.50;;
19897;SDS011;10111;50.814;4.572;2023-04-03T06:55:26;13.00;;;10.63;;
19897;SDS011;10111;50.814;4.572;2023-04-03T06:57:51;14.20;;;10.97;;
19897;SDS011;10111;50.814;4.572;2023-04-03T07:00:17;14.63;;;10.23;;
19897;SDS011;10111;50.814;4.572;2023-04-03T07:02:43;13.13;;;10.77;;
19897;SDS011;10111;50.814;4.572;2023-04-03T07:05:09;15.60;;;10.37;;
19897;SDS011;10111;50.814;4.572;2023-04-03T07:07:35;13.20;;;9.80;;
19897;SDS011;10111;50.814;4.572;2023-04-03T07:10:01;16.13;;;9.77;;
19897;SDS011;10111;50.814;4.572;2023-04-03T07:12:26;12.00;;;10.43;;
19897;SDS011;10111;50.814;4.572;2023-04-03T07:14:52;14.90;;;10.57;;
19897;SDS011;10111;50.814;4.572;2023-04-03T07:17:18;13.17;;;10.37;;
19897;SDS011;10111;50.814;4.572;2023-04-03T07:19:44;12.30;;;9.70;;
19897;SDS011;10111;50.814;4.572;2023-04-03T07:22:10;11.40;;;9.13;;
19897;SDS011;10111;50.814;4.572;2023-04-03T07:24:36;15.37;;;9.80;;
19897;SDS011;10111;50.814;4.572;2023-04-03T07:27:02;11.67;;;8.23;;
19897;SDS011;10111;50.814;4.572;2023-04-03T07:29:28;10.53;;;9.37;;
19897;SDS011;10111;50.814;4.572;2023-04-03T07:31:55;11.17;;;9.97;;
19897;SDS011;10111;50.814;4.572;2023-04-03T07:34:21;13.47;;;10.07;;
19897;SDS011;10111;50.814;4.572;2023-04-03T07:36:47;13.13;;;9.90;;
19897;SDS011;10111;50.814;4.572;2023-04-03T07:39:12;12.03;;;8.87;;
19897;SDS011;10111;50.814;4.572;2023-04-03T07:41:38;12.70;;;9.30;;
19897;SDS011;10111;50.814;4.572;2023-04-03T07:44:04;9.97;;;8.60;;
19897;SDS011;10111;50.814;4.572;2023-04-03T07:46:30;9.93;;;8.93;;
19897;SDS011;10111;50.814;4.572;2023-04-03T07:48:56;10.03;;;8.23;;
19897;SDS011;10111;50.814;4.572;2023-04-03T07:51:22;11.87;;;9.40;;
19897;SDS011;10111;50.814;4.572;2023-04-03T07:53:49;7.63;;;6.87;;
19897;SDS011;10111;50.814;4.572;2023-04-03T07:56:15;13.83;;;8.30;;
19897;SDS011;10111;50.814;4.572;2023-04-03T07:58:42;9.53;;;7.43;;
19897;SDS011;10111;50.814;4.572;2023-04-03T08:01:07;10.40;;;6.70;;
19897;SDS011;10111;50.814;4.572;2023-04-03T08:03:33;10.07;;;7.37;;
19897;SDS011;10111;50.814;4.572;2023-04-03T08:06:03;9.70;;;7.47;;
19897;SDS011;10111;50.814;4.572;2023-04-03T08:08:30;11.90;;;8.17;;
19897;SDS011;10111;50.814;4.572;2023-04-03T08:10:58;7.83;;;5.87;;
19897;SDS011;10111;50.814;4.572;2023-04-03T08:13:25;11.37;;;6.77;;
19897;SDS011;10111;50.814;4.572;2023-04-03T08:15:51;8.67;;;7.07;;
19897;SDS011;10111;50.814;4.572;2023-04-03T08:18:17;9.53;;;6.53;;
19897;SDS011;10111;50.814;4.572;2023-04-03T08:20:46;7.10;;;6.40;;
19897;SDS011;10111;50.814;4.572;2023-04-03T08:23:12;6.93;;;6.33;;
19897;SDS011;10111;50.814;4.572;2023-04-03T08:25:42;7.00;;;6.37;;
19897;SDS011;10111;50.814;4.572;2023-04-03T08:28:08;8.43;;;5.63;;
19897;SDS011;10111;50.814;4.572;2023-04-03T08:30:35;6.20;;;5.60;;
19897;SDS011;10111;50.814;4.572;2023-04-03T08:33:04;5.33;;;4.60;;
19897;SDS011;10111;50.814;4.572;2023-04-03T08:35:29;8.47;;;5.33;;
19897;SDS011;10111;50.814;4.572;2023-04-03T08:37:55;7.23;;;5.07;;
19897;SDS011;10111;50.814;4.572;2023-04-03T08:40:21;6.13;;;4.67;;
19897;SDS011;10111;50.814;4.572;2023-04-03T08:45:25;11.33;;;10.13;;
19897;SDS011;10111;50.814;4.572;2023-04-03T08:48:11;8.77;;;5.83;;
19897;SDS011;10111;50.814;4.572;2023-04-03T08:50:46;8.33;;;4.37;;
19897;SDS011;10111;50.814;4.572;2023-04-03T08:53:25;5.43;;;4.53;;
19897;SDS011;10111;50.814;4.572;2023-04-03T08:55:56;6.57;;;4.80;;
19897;SDS011;10111;50.814;4.572;2023-04-03T08:58:26;7.20;;;4.27;;
19897;SDS011;10111;50.814;4.572;2023-04-03T09:01:15;6.90;;;4.20;;
19897;SDS011;10111;50.814;4.572;2023-04-03T09:03:45;7.17;;;4.40;;
19897;SDS011;10111;50.814;4.572;2023-04-03T09:06:12;6.23;;;4.47;;
19897;SDS011;10111;50.814;4.572;2023-04-03T09:11:27;4.00;;;3.23;;
19897;SDS011;10111;50.814;4.572;2023-04-03T09:16:43;5.53;;;3.67;;
19897;SDS011;10111;50.814;4.572;2023-04-03T09:20:02;6.30;;;3.23;;
19897;SDS011;10111;50.814;4.572;2023-04-03T09:22:26;6.43;;;3.27;;
19897;SDS011;10111;50.814;4.572;2023-04-03T09:25:05;4.77;;;3.53;;
19897;SDS011;10111;50.814;4.572;2023-04-03T09:27:41;3.27;;;2.70;;
19897;SDS011;10111;50.814;4.572;2023-04-03T09:30:40;3.90;;;3.07;;
19897;SDS011;10111;50.814;4.572;2023-04-03T09:32:59;6.97;;;2.90;;
19897;SDS011;10111;50.814;4.572;2023-04-03T09:35:26;4.50;;;2.40;;
19897;SDS011;10111;50.814;4.572;2023-04-03T09:37:55;4.73;;;2.63;;
19897;SDS011;10111;50.814;4.572;2023-04-03T09:42:52;3.10;;;2.83;;
19897;SDS011;10111;50.814;4.572;2023-04-03T09:45:25;4.20;;;3.20;;
19897;SDS011;10111;50.814;4.572;2023-04-03T09:50:59;3.00;;;2.70;;
19897;SDS011;10111;50.814;4.572;2023-04-03T09:56:09;3.57;;;2.90;;
19897;SDS011;10111;50.814;4.572;2023-04-03T09:58:49;5.63;;;3.23;;
19897;SDS011;10111;50.814;4.572;2023-04-03T10:01:27;4.27;;;2.87;;
19897;SDS011;10111;50.814;4.572;2023-04-03T10:06:38;5.73;;;3.20;;
19897;SDS011;10111;50.814;4.572;2023-04-03T10:09:33;4.23;;;3.33;;
19897;SDS011;10111;50.814;4.572;2023-04-03T10:14:39;3.50;;;3.20;;
19897;SDS011;10111;50.814;4.572;2023-04-03T10:20:08;3.47;;;2.43;;
19897;SDS011;10111;50.814;4.572;2023-04-03T10:36:29;4.17;;;2.40;;
19897;SDS011;10111;50.814;4.572;2023-04-03T10:41:59;2.77;;;2.30;;
19897;SDS011;10111;50.814;4.572;2023-04-03T10:47:37;2.97;;;2.37;;
19897;SDS011;10111;50.814;4.572;2023-04-03T10:53:26;4.87;;;2.50;;
19897;SDS011;10111;50.814;4.572;2023-04-03T10:59:32;4.97;;;3.77;;
19897;SDS011;10111;50.814;4.572;2023-04-03T11:04:58;4.07;;;2.20;;
19897;SDS011;10111;50.814;4.572;2023-04-03T11:07:29;4.73;;;2.47;;
19897;SDS011;10111;50.814;4.572;2023-04-03T11:10:03;7.50;;;2.33;;
19897;SDS011;10111;50.814;4.572;2023-04-03T11:12:42;3.03;;;2.30;;
19897;SDS011;10111;50.814;4.572;2023-04-03T11:15:15;2.30;;;1.90;;
19897;SDS011;10111;50.814;4.572;2023-04-03T11:17:51;1.90;;;1.70;;
19897;SDS011;10111;50.814;4.572;2023-04-03T11:20:30;3.27;;;1.90;;
19897;SDS011;10111;50.814;4.572;2023-04-03T11:23:06;2.13;;;1.73;;
19897;SDS011;10111;50.814;4.572;2023-04-03T11:25:34;2.27;;;1.77;;
19897;SDS011;10111;50.814;4.572;2023-04-03T11:28:04;3.40;;;1.97;;
19897;SDS011;10111;50.814;4.572;2023-04-03T11:36:47;2.97;;;1.50;;
19897;SDS011;10111;50.814;4.572;2023-04-03T11:39:37;3.57;;;1.90;;
19897;SDS011;10111;50.814;4.572;2023-04-03T11:42:13;3.77;;;1.97;;
19897;SDS011;10111;50.814;4.572;2023-04-03T11:44:40;3.50;;;1.70;;
19897;SDS011;10111;50.814;4.572;2023-04-03T11:47:07;1.93;;;1.57;;
19897;SDS011;10111;50.814;4.572;2023-04-03T11:49:51;3.87;;;2.10;;
19897;SDS011;10111;50.814;4.572;2023-04-03T12:16:06;3.90;;;1.83;;
19897;SDS011;10111;50.814;4.572;2023-04-03T12:23:58;3.27;;;1.70;;
19897;SDS011;10111;50.814;4.572;2023-04-03T12:35:00;4.50;;;1.57;;
19897;SDS011;10111;50.814;4.572;2023-04-03T12:40:37;2.00;;;1.87;;
19897;SDS011;10111;50.814;4.572;2023-04-03T12:51:13;2.43;;;1.60;;
19897;SDS011;10111;50.814;4.572;2023-04-03T12:53:42;2.53;;;1.40;;
19897;SDS011;10111;50.814;4.572;2023-04-03T12:56:26;1.97;;;1.30;;
19897;SDS011;10111;50.814;4.572;2023-04-03T12:58:54;3.47;;;1.37;;
19897;SDS011;10111;50.814;4.572;2023-04-03T13:01:37;1.47;;;1.17;;
19897;SDS011;10111;50.814;4.572;2023-04-03T13:04:03;1.17;;;1.00;;
19897;SDS011;10111;50.814;4.572;2023-04-03T13:06:39;1.77;;;1.43;;
19897;SDS011;10111;50.814;4.572;2023-04-03T13:09:17;3.37;;;1.60;;
19897;SDS011;10111;50.814;4.572;2023-04-03T13:11:46;1.20;;;1.10;;
19897;SDS011;10111;50.814;4.572;2023-04-03T13:14:17;2.63;;;2.00;;
19897;SDS011;10111;50.814;4.572;2023-04-03T13:19:37;2.33;;;1.50;;
19897;SDS011;10111;50.814;4.572;2023-04-03T13:22:08;1.77;;;1.43;;
19897;SDS011;10111;50.814;4.572;2023-04-03T13:24:48;2.93;;;1.17;;
19897;SDS011;10111;50.814;4.572;2023-04-03T13:27:15;1.77;;;1.40;;
19897;SDS011;10111;50.814;4.572;2023-04-03T13:29:41;1.77;;;1.20;;
19897;SDS011;10111;50.814;4.572;2023-04-03T13:32:14;2.33;;;1.50;;
19897;SDS011;10111;50.814;4.572;2023-04-03T13:34:44;3.43;;;1.73;;
19897;SDS011;10111;50.814;4.572;2023-04-03T13:37:23;2.53;;;1.50;;
19897;SDS011;10111;50.814;4.572;2023-04-03T13:42:26;1.83;;;1.20;;
19897;SDS011;10111;50.814;4.572;2023-04-03T13:47:54;2.57;;;1.87;;
19897;SDS011;10111;50.814;4.572;2023-04-03T13:50:41;3.17;;;2.13;;
19897;SDS011;10111;50.814;4.572;2023-04-03T13:53:19;4.17;;;1.60;;
19897;SDS011;10111;50.814;4.572;2023-04-03T13:55:53;1.63;;;1.30;;
19897;SDS011;10111;50.814;4.572;2023-04-03T13:58:31;4.67;;;1.33;;
19897;SDS011;10111;50.814;4.572;2023-04-03T14:03:46;4.33;;;1.70;;
19897;SDS011;10111;50.814;4.572;2023-04-03T14:06:23;1.57;;;1.47;;
19897;SDS011;10111;50.814;4.572;2023-04-03T14:08:49;3.30;;;2.20;;
19897;SDS011;10111;50.814;4.572;2023-04-03T14:11:24;2.00;;;1.57;;
19897;SDS011;10111;50.814;4.572;2023-04-03T14:13:53;1.70;;;1.47;;
19897;SDS011;10111;50.814;4.572;2023-04-03T14:16:24;2.63;;;1.60;;
19897;SDS011;10111;50.814;4.572;2023-04-03T14:18:54;2.23;;;1.23;;
19897;SDS011;10111;50.814;4.572;2023-04-03T14:21:20;2.27;;;1.60;;
19897;SDS011;10111;50.814;4.572;2023-04-03T14:23:46;2.10;;;1.80;;
19897;SDS011;10111;50.814;4.572;2023-04-03T14:26:22;2.93;;;1.60;;
19897;SDS011;10111;50.814;4.572;2023-04-03T14:28:51;6.63;;;1.70;;
19897;SDS011;10111;50.814;4.572;2023-04-03T14:31:18;1.20;;;1.10;;
19897;SDS011;10111;50.814;4.572;2023-04-03T14:33:45;2.07;;;1.40;;
19897;SDS011;10111;50.814;4.572;2023-04-03T14:36:16;2.03;;;1.77;;
19897;SDS011;10111;50.814;4.572;2023-04-03T14:38:46;4.87;;;2.20;;
19897;SDS011;10111;50.814;4.572;2023-04-03T14:41:13;1.77;;;1.67;;
19897;SDS011;10111;50.814;4.572;2023-04-03T14:43:40;1.07;;;1.00;;
19897;SDS011;10111;50.814;4.572;2023-04-03T14:46:14;5.30;;;1.67;;
19897;SDS011;10111;50.814;4.572;2023-04-03T14:48:41;3.57;;;1.50;;
19897;SDS011;10111;50.814;4.572;2023-04-03T14:51:08;3.00;;;1.67;;
19897;SDS011;10111;50.814;4.572;2023-04-03T14:53:39;4.50;;;1.63;;
19897;SDS011;10111;50.814;4.572;2023-04-03T14:56:25;2.83;;;1.77;;
19897;SDS011;10111;50.814;4.572;2023-04-03T14:58:55;1.80;;;1.50;;
19897;SDS011;10111;50.814;4.572;2023-04-03T15:01:26;2.57;;;2.00;;
19897;SDS011;10111;50.814;4.572;2023-04-03T15:03:53;3.90;;;1.90;;
19897;SDS011;10111;50.814;4.572;2023-04-03T15:06:19;2.37;;;1.80;;
19897;SDS011;10111;50.814;4.572;2023-04-03T15:08:46;2.83;;;2.00;;
19897;SDS011;10111;50.814;4.572;2023-04-03T15:11:12;2.90;;;1.80;;
19897;SDS011;10111;50.814;4.572;2023-04-03T15:13:39;2.17;;;1.30;;
19897;SDS011;10111;50.814;4.572;2023-04-03T15:16:12;4.37;;;2.40;;
19897;SDS011;10111;50.814;4.572;2023-04-03T15:18:43;3.77;;;2.40;;
19897;SDS011;10111;50.814;4.572;2023-04-03T15:21:10;5.30;;;2.43;;
19897;SDS011;10111;50.814;4.572;2023-04-03T15:23:35;3.40;;;2.17;;
19897;SDS011;10111;50.814;4.572;2023-04-03T15:26:02;4.10;;;1.83;;
19897;SDS011;10111;50.814;4.572;2023-04-03T15:28:29;2.03;;;1.50;;
19897;SDS011;10111;50.814;4.572;2023-04-03T15:31:04;4.17;;;1.67;;
19897;SDS011;10111;50.814;4.572;2023-04-03T15:33:31;3.83;;;2.00;;
19897;SDS011;10111;50.814;4.572;2023-04-03T15:35:59;3.50;;;2.17;;
19897;SDS011;10111;50.814;4.572;2023-04-03T15:38:25;2.10;;;1.53;;
19897;SDS011;10111;50.814;4.572;2023-04-03T15:40:51;3.60;;;1.93;;
19897;SDS011;10111;50.814;4.572;2023-04-03T15:43:18;4.67;;;2.50;;
19897;SDS011;10111;50.814;4.572;2023-04-03T15:45:44;5.07;;;1.77;;
19897;SDS011;10111;50.814;4.572;2023-04-03T15:48:10;3.83;;;2.30;;
19897;SDS011;10111;50.814;4.572;2023-04-03T15:50:36;4.03;;;2.20;;
19897;SDS011;10111;50.814;4.572;2023-04-03T15:53:03;2.43;;;2.10;;
19897;SDS011;10111;50.814;4.572;2023-04-03T15:55:29;3.60;;;2.27;;
19897;SDS011;10111;50.814;4.572;2023-04-03T15:57:57;6.20;;;3.23;;
19897;SDS011;10111;50.814;4.572;2023-04-03T16:00:23;2.47;;;2.20;;
19897;SDS011;10111;50.814;4.572;2023-04-03T16:02:53;2.93;;;2.23;;
19897;SDS011;10111;50.814;4.572;2023-04-03T16:05:23;3.57;;;2.07;;
19897;SDS011;10111;50.814;4.572;2023-04-03T16:07:49;5.53;;;2.60;;
19897;SDS011;10111;50.814;4.572;2023-04-03T16:10:16;2.97;;;2.03;;
19897;SDS011;10111;50.814;4.572;2023-04-03T16:12:42;5.00;;;2.40;;
19897;SDS011;10111;50.814;4.572;2023-04-03T16:15:08;3.43;;;2.00;;
19897;SDS011;10111;50.814;4.572;2023-04-03T16:17:34;4.57;;;3.17;;
19897;SDS011;10111;50.814;4.572;2023-04-03T16:20:03;2.87;;;2.00;;
19897;SDS011;10111;50.814;4.572;2023-04-03T16:22:29;3.77;;;2.10;;
19897;SDS011;10111;50.814;4.572;2023-04-03T16:24:55;3.23;;;1.90;;
19897;SDS011;10111;50.814;4.572;2023-04-03T16:27:21;5.00;;;3.40;;
19897;SDS011;10111;50.814;4.572;2023-04-03T16:29:52;3.47;;;2.27;;
19897;SDS011;10111;50.814;4.572;2023-04-03T16:32:21;4.30;;;2.20;;
19897;SDS011;10111;50.814;4.572;2023-04-03T16:34:47;2.37;;;1.70;;
19897;SDS011;10111;50.814;4.572;2023-04-03T16:37:13;3.37;;;1.93;;
19897;SDS011;10111;50.814;4.572;2023-04-03T16:39:40;4.60;;;2.77;;
19897;SDS011;10111;50.814;4.572;2023-04-03T16:42:06;5.57;;;2.53;;
19897;SDS011;10111;50.814;4.572;2023-04-03T16:44:33;3.70;;;2.23;;
19897;SDS011;10111;50.814;4.572;2023-04-03T16:46:58;6.17;;;2.20;;
19897;SDS011;10111;50.814;4.572;2023-04-03T16:49:24;5.00;;;2.73;;
19897;SDS011;10111;50.814;4.572;2023-04-03T16:51:50;3.13;;;2.13;;
19897;SDS011;10111;50.814;4.572;2023-04-03T16:54:15;7.87;;;2.27;;
19897;SDS011;10111;50.814;4.572;2023-04-03T16:56:41;2.87;;;2.17;;
19897;SDS011;10111;50.814;4.572;2023-04-03T16:59:07;4.23;;;2.13;;
19897;SDS011;10111;50.814;4.572;2023-04-03T17:01:33;2.17;;;1.60;;
19897;SDS011;10111;50.814;4.572;2023-04-03T17:03:58;5.20;;;2.00;;
19897;SDS011;10111;50.814;4.572;2023-04-03T17:06:24;3.90;;;1.97;;